createdAt,value
2022-12-05T00:00:24.081Z,18.23
2022-12-05T00:02:55.424Z,19.90
2022-12-05T00:05:26.754Z,15.70
2022-12-05T00:07:58.138Z,18.77
2022-12-05T00:10:29.455Z,19.23
2022-12-05T00:13:00.790Z,18.47
2022-12-05T00:15:32.085Z,16.60
2022-12-05T00:18:03.807Z,17.53
2022-12-05T00:20:35.169Z,16.50
2022-12-05T00:23:06.461Z,18.97
2022-12-05T00:25:37.856Z,17.60
2022-12-05T00:28:09.122Z,18.83
2022-12-05T00:30:40.832Z,18.13
2022-12-05T00:33:12.224Z,17.00
2022-12-05T00:35:43.482Z,17.97
2022-12-05T00:38:14.853Z,18.10
2022-12-05T00:40:46.139Z,17.27
2022-12-05T00:43:17.421Z,20.00
2022-12-05T00:45:48.739Z,17.37
2022-12-05T00:48:20.069Z,17.07
2022-12-05T00:51:00.545Z,16.13
2022-12-05T00:53:32.732Z,16.67
2022-12-05T00:56:14.531Z,17.47
2022-12-05T00:58:46.764Z,17.37
2022-12-05T01:01:32.831Z,14.73
2022-12-05T01:04:11.313Z,15.50
2022-12-05T01:06:43.338Z,15.93
2022-12-05T01:09:18.823Z,15.63
2022-12-05T01:11:50.604Z,16.08
2022-12-05T01:14:23.928Z,16.67
2022-12-05T01:16:56.140Z,16.40
2022-12-05T01:19:30.097Z,16.33
2022-12-05T01:22:01.665Z,17.37
2022-12-05T01:24:32.946Z,16.67
2022-12-05T01:27:04.304Z,14.20
2022-12-05T01:29:35.644Z,16.90
2022-12-05T01:32:07.016Z,16.30
2022-12-05T01:34:38.430Z,17.17
2022-12-05T01:37:09.785Z,15.70
2022-12-05T01:39:41.165Z,16.53
2022-12-05T01:42:12.847Z,16.20
2022-12-05T01:44:47.136Z,16.33
2022-12-05T01:47:19.088Z,15.37
2022-12-05T01:49:50.455Z,15.07
2022-12-05T01:52:25.305Z,14.43
2022-12-05T01:55:08.534Z,15.47
2022-12-05T01:57:41.007Z,15.67
2022-12-05T02:00:16.311Z,17.50
2022-12-05T02:02:54.595Z,15.03
2022-12-05T02:05:37.519Z,16.87
2022-12-05T02:08:10.740Z,14.93
2022-12-05T02:11:00.243Z,16.27
2022-12-05T02:13:59.567Z,15.93
2022-12-05T02:16:58.657Z,14.07
2022-12-05T02:20:02.860Z,15.50
2022-12-05T02:22:42.225Z,15.83
2022-12-05T02:25:51.689Z,16.20
2022-12-05T02:28:52.984Z,14.70
2022-12-05T02:31:51.475Z,16.20
2022-12-05T02:34:40.404Z,15.53
2022-12-05T02:37:22.787Z,15.83
2022-12-05T02:40:10.594Z,16.20
2022-12-05T02:42:44.858Z,15.70
2022-12-05T02:45:18.753Z,16.23
2022-12-05T02:47:52.782Z,15.67
2022-12-05T02:50:29.121Z,17.13
2022-12-05T02:55:35.477Z,14.23
2022-12-05T02:58:11.688Z,14.70
2022-12-05T03:00:47.361Z,15.38
2022-12-05T03:03:21.963Z,16.13
2022-12-05T03:06:05.163Z,14.97
2022-12-05T03:08:48.521Z,16.40
2022-12-05T03:11:20.260Z,13.90
2022-12-05T03:13:55.891Z,16.40
2022-12-05T03:16:38.726Z,15.38
2022-12-05T03:19:20.069Z,15.50
2022-12-05T03:22:10.644Z,15.60
2022-12-05T03:24:43.129Z,15.27
2022-12-05T03:27:46.418Z,16.23
2022-12-05T03:30:20.563Z,13.53
2022-12-05T03:33:17.759Z,13.77
2022-12-05T03:36:04.413Z,13.55
2022-12-05T03:38:56.652Z,15.85
2022-12-05T03:41:45.007Z,14.00
2022-12-05T03:44:43.088Z,14.40
2022-12-05T03:47:42.249Z,14.67
2022-12-05T03:50:24.240Z,14.43
2022-12-05T03:53:20.351Z,14.50
2022-12-05T03:56:02.221Z,13.63
2022-12-05T03:58:41.610Z,13.03
2022-12-05T04:01:16.672Z,14.20
2022-12-05T04:03:56.416Z,13.77
2022-12-05T04:06:33.175Z,13.83
2022-12-05T04:09:12.381Z,15.10
2022-12-05T04:11:53.195Z,14.67
2022-12-05T04:14:35.349Z,12.63
2022-12-05T04:17:16.919Z,15.67
2022-12-05T04:20:15.670Z,12.47
2022-12-05T04:22:47.295Z,14.30
2022-12-05T04:25:34.128Z,13.13
2022-12-05T04:31:13.297Z,13.30
2022-12-05T04:33:54.622Z,14.13
2022-12-05T04:36:45.070Z,12.13
2022-12-05T04:39:22.807Z,14.43
2022-12-05T04:42:00.054Z,14.33
2022-12-05T04:44:37.933Z,14.20
2022-12-05T04:47:14.772Z,14.47
2022-12-05T04:49:52.166Z,13.40
2022-12-05T04:52:25.688Z,11.60
2022-12-05T04:55:09.496Z,13.70
2022-12-05T04:57:52.219Z,14.00
2022-12-05T05:00:24.205Z,13.40
2022-12-05T05:03:06.941Z,12.67
2022-12-05T05:05:39.660Z,13.13
2022-12-05T05:08:23.408Z,12.20
2022-12-05T05:11:04.569Z,11.73
2022-12-05T05:13:36.235Z,12.23
2022-12-05T05:16:08.760Z,13.43
2022-12-05T05:18:40.168Z,12.90
2022-12-05T05:21:21.400Z,12.93
2022-12-05T05:23:53.442Z,12.33
2022-12-05T05:26:26.317Z,12.40
2022-12-05T05:28:58.357Z,11.97
2022-12-05T05:31:30.305Z,11.53
2022-12-05T05:34:07.633Z,11.40
2022-12-05T05:36:40.832Z,12.63
2022-12-05T05:39:14.872Z,10.37
2022-12-05T05:41:46.154Z,11.20
2022-12-05T05:44:17.404Z,12.13
2022-12-05T05:46:48.815Z,11.13
2022-12-05T05:49:20.126Z,11.33
2022-12-05T05:51:51.385Z,11.73
2022-12-05T05:54:22.679Z,11.97
2022-12-05T05:56:53.992Z,12.00
2022-12-05T05:59:25.332Z,11.00
2022-12-05T06:01:56.665Z,10.40
2022-12-05T06:04:27.968Z,10.70
2022-12-05T06:06:59.301Z,11.60
2022-12-05T06:09:30.713Z,10.23
2022-12-05T06:12:02.006Z,11.73
2022-12-05T06:14:33.403Z,10.10
2022-12-05T06:17:05.135Z,10.27
2022-12-05T06:19:36.396Z,11.47
2022-12-05T06:22:08.136Z,10.03
2022-12-05T06:24:39.443Z,10.20
2022-12-05T06:27:10.766Z,10.60
2022-12-05T06:29:42.227Z,9.47
2022-12-05T06:32:13.564Z,10.57
2022-12-05T06:34:44.805Z,10.23
2022-12-05T06:37:16.086Z,10.70
2022-12-05T06:39:47.377Z,9.80
2022-12-05T06:42:18.748Z,10.67
2022-12-05T06:44:50.033Z,11.27
2022-12-05T06:47:21.296Z,11.83
2022-12-05T06:49:52.553Z,11.37
2022-12-05T06:52:23.839Z,12.07
2022-12-05T06:54:55.118Z,12.23
2022-12-05T06:57:28.498Z,11.47
2022-12-05T07:00:18.450Z,10.23
2022-12-05T07:02:53.167Z,10.57
2022-12-05T07:05:24.711Z,10.83
2022-12-05T07:07:56.130Z,12.37
2022-12-05T07:10:27.460Z,11.20
2022-12-05T07:12:58.753Z,12.00
2022-12-05T07:15:30.012Z,10.40
2022-12-05T07:18:01.352Z,12.13
2022-12-05T07:20:56.081Z,12.07
2022-12-05T07:23:23.904Z,13.13
2022-12-05T07:25:55.422Z,14.37
2022-12-05T07:28:26.780Z,15.53
2022-12-05T07:31:02.347Z,14.73
2022-12-05T07:33:33.716Z,18.13
2022-12-05T07:36:07.485Z,17.10
2022-12-05T07:38:39.313Z,18.67
2022-12-05T07:41:17.642Z,21.10
2022-12-05T07:43:50.878Z,17.80
2022-12-05T07:46:23.033Z,17.60
2022-12-05T07:48:54.744Z,17.73
2022-12-05T07:51:28.096Z,15.87
2022-12-05T07:53:59.889Z,16.70
2022-12-05T07:56:31.260Z,19.07
2022-12-05T07:59:02.864Z,19.83
2022-12-05T08:01:34.329Z,22.53
2022-12-05T08:04:07.660Z,22.23
2022-12-05T08:06:40.800Z,23.10
2022-12-05T08:09:12.078Z,23.00
2022-12-05T08:11:46.947Z,26.03
2022-12-05T08:14:21.542Z,21.83
2022-12-05T08:16:52.959Z,23.47
2022-12-05T08:19:24.299Z,21.00
2022-12-05T08:21:55.632Z,22.57
2022-12-05T08:24:26.960Z,22.57
2022-12-05T08:26:58.232Z,23.40
2022-12-05T08:29:29.514Z,22.30
2022-12-05T08:32:00.778Z,21.50
2022-12-05T08:34:32.070Z,21.30
2022-12-05T08:37:03.524Z,18.13
2022-12-05T08:39:38.693Z,20.33
2022-12-05T08:42:10.351Z,18.83
2022-12-05T08:44:41.607Z,20.90
2022-12-05T08:47:12.856Z,19.97
2022-12-05T08:49:44.165Z,16.87
2022-12-05T08:52:15.501Z,19.20
2022-12-05T08:54:46.756Z,18.63
2022-12-05T08:57:18.064Z,18.20
2022-12-05T08:59:49.316Z,17.67
2022-12-05T09:02:20.645Z,14.83
2022-12-05T09:04:54.083Z,14.83
2022-12-05T09:07:25.637Z,16.37
2022-12-05T09:09:56.892Z,15.87
2022-12-05T09:12:28.147Z,15.37
2022-12-05T09:14:59.687Z,14.57
2022-12-05T09:17:31.120Z,16.33
2022-12-05T09:20:02.429Z,13.60
2022-12-05T09:22:33.735Z,14.37
2022-12-05T09:25:05.942Z,14.83
2022-12-05T09:27:37.240Z,16.43
2022-12-05T09:30:09.330Z,15.67
2022-12-05T09:32:40.607Z,16.10
2022-12-05T09:35:12.224Z,16.37
2022-12-05T09:37:43.474Z,15.90
2022-12-05T09:40:17.163Z,16.87
2022-12-05T09:43:01.225Z,15.87
2022-12-05T09:45:39.739Z,15.50
2022-12-05T09:48:14.663Z,15.23
2022-12-05T09:50:56.180Z,13.63
2022-12-05T09:53:32.320Z,14.63
2022-12-05T09:56:05.286Z,14.05
2022-12-05T09:58:45.489Z,13.53
2022-12-05T10:01:25.613Z,14.63
2022-12-05T10:04:20.832Z,15.40
2022-12-05T10:07:15.560Z,11.57
2022-12-05T10:09:55.296Z,13.07
2022-12-05T10:12:47.719Z,13.67
2022-12-05T10:15:45.708Z,13.70
2022-12-05T10:18:38.730Z,12.67
2022-12-05T10:21:25.729Z,13.23
2022-12-05T10:24:00.608Z,13.13
2022-12-05T10:26:43.750Z,13.47
2022-12-05T10:29:20.721Z,13.03
2022-12-05T10:32:00.932Z,13.57
2022-12-05T10:34:39.447Z,13.07
2022-12-05T10:37:17.558Z,13.70
2022-12-05T10:39:50.416Z,13.67
2022-12-05T10:42:28.329Z,13.97
2022-12-05T10:45:04.722Z,12.33
2022-12-05T10:47:36.669Z,12.93
2022-12-05T10:50:21.625Z,12.63
2022-12-05T10:52:55.542Z,11.83
2022-12-05T10:55:36.129Z,11.93
2022-12-05T10:58:17.844Z,11.10
2022-12-05T11:00:53.144Z,12.53
2022-12-05T11:03:29.243Z,11.93
2022-12-05T11:06:03.018Z,9.52
2022-12-05T11:09:03.011Z,11.10
2022-12-05T11:11:33.174Z,10.83
2022-12-05T11:14:07.818Z,10.83
2022-12-05T11:16:39.485Z,10.43
2022-12-05T11:19:31.243Z,10.43
2022-12-05T11:22:04.831Z,11.37
2022-12-05T11:24:38.298Z,10.30
2022-12-05T11:27:15.724Z,11.40
2022-12-05T11:30:18.783Z,11.50
2022-12-05T11:32:51.384Z,11.27
2022-12-05T11:35:26.223Z,11.63
2022-12-05T11:38:01.875Z,12.77
2022-12-05T11:40:48.208Z,11.15
2022-12-05T11:43:54.710Z,9.88
2022-12-05T11:46:32.071Z,11.23
2022-12-05T11:49:09.295Z,13.00
2022-12-05T11:51:56.747Z,11.57
2022-12-05T11:55:03.767Z,8.55
2022-12-05T11:57:48.894Z,11.27
2022-12-05T12:00:41.418Z,10.93
2022-12-05T12:03:49.664Z,10.87
2022-12-05T12:07:02.755Z,11.97
2022-12-05T12:09:53.823Z,10.70
2022-12-05T12:12:33.702Z,11.77
2022-12-05T12:15:32.381Z,11.27
2022-12-05T12:18:17.991Z,11.20
2022-12-05T12:21:17.183Z,10.83
2022-12-05T12:24:11.358Z,10.77
2022-12-05T12:27:00.185Z,11.23
2022-12-05T12:30:03.816Z,12.07
2022-12-05T12:33:02.967Z,11.30
2022-12-05T12:35:40.607Z,11.73
2022-12-05T12:38:37.080Z,12.20
2022-12-05T12:41:26.397Z,12.40
2022-12-05T12:44:22.733Z,11.30
2022-12-05T12:46:58.565Z,11.20
2022-12-05T12:49:42.020Z,10.00
2022-12-05T12:52:26.641Z,9.93
2022-12-05T12:55:30.251Z,10.97
2022-12-05T12:58:40.286Z,12.13
2022-12-05T13:01:24.327Z,11.33
2022-12-05T13:04:28.295Z,11.23
2022-12-05T13:07:15.914Z,10.70
2022-12-05T13:09:55.626Z,10.00
2022-12-05T13:12:31.315Z,10.17
2022-12-05T13:15:11.512Z,10.70
2022-12-05T13:17:47.313Z,10.37
2022-12-05T13:20:22.974Z,9.82
2022-12-05T13:22:54.975Z,10.00
2022-12-05T13:25:30.803Z,10.97
2022-12-05T13:28:05.262Z,9.75
2022-12-05T13:30:56.530Z,9.83
2022-12-05T13:33:42.008Z,9.53
2022-12-05T13:36:40.340Z,10.27
2022-12-05T13:39:33.583Z,8.23
2022-12-05T13:42:17.883Z,8.87
2022-12-05T13:44:57.356Z,8.80
2022-12-05T13:47:35.406Z,9.63
2022-12-05T13:50:07.146Z,9.97
2022-12-05T13:52:42.889Z,10.27
2022-12-05T13:55:23.224Z,9.30
2022-12-05T13:57:56.505Z,8.30
2022-12-05T14:00:31.113Z,8.33
2022-12-05T14:03:15.847Z,8.67
2022-12-05T14:05:49.653Z,8.50
2022-12-05T14:08:35.596Z,7.50
2022-12-05T14:11:10.901Z,8.05
2022-12-05T14:13:44.027Z,9.27
2022-12-05T14:16:24.195Z,7.63
2022-12-05T14:19:12.241Z,7.20
2022-12-05T14:21:53.046Z,7.60
2022-12-05T14:24:55.541Z,7.40
2022-12-05T14:27:53.679Z,7.93
2022-12-05T14:31:02.667Z,6.80
2022-12-05T14:33:34.095Z,8.13
2022-12-05T14:36:08.286Z,7.30
2022-12-05T14:38:40.090Z,7.77
2022-12-05T14:41:22.439Z,8.13
2022-12-05T14:43:56.489Z,7.77
2022-12-05T14:46:33.396Z,7.93
2022-12-05T14:49:47.051Z,8.40
2022-12-05T14:52:26.463Z,8.77
2022-12-05T14:55:06.011Z,8.30
2022-12-05T14:57:46.901Z,7.50
2022-12-05T15:00:22.605Z,8.13
2022-12-05T15:02:56.491Z,8.55
2022-12-05T15:05:31.784Z,8.47
2022-12-05T15:08:04.758Z,9.10
2022-12-05T15:10:38.558Z,8.43
2022-12-05T15:13:24.483Z,8.67
2022-12-05T15:16:12.739Z,6.93
2022-12-05T15:18:50.309Z,8.13
2022-12-05T15:21:33.431Z,7.90
2022-12-05T15:24:11.718Z,7.90
2022-12-05T15:26:50.549Z,7.77
2022-12-05T15:29:25.333Z,7.23
2022-12-05T15:32:11.947Z,7.93
2022-12-05T15:35:06.079Z,7.53
2022-12-05T15:37:55.135Z,7.57
2022-12-05T15:40:36.913Z,8.07
2022-12-05T15:43:30.834Z,7.20
2022-12-05T15:46:09.410Z,8.13
2022-12-05T15:48:40.779Z,8.13
2022-12-05T15:51:12.242Z,7.50
2022-12-05T15:53:56.155Z,7.40
2022-12-05T15:56:36.009Z,7.47
2022-12-05T15:59:26.090Z,7.93
2022-12-05T16:02:26.278Z,7.97
2022-12-05T16:04:59.995Z,7.37
2022-12-05T16:07:31.648Z,7.70
2022-12-05T16:10:03.183Z,8.43
2022-12-05T16:12:39.691Z,7.40
2022-12-05T16:15:27.914Z,7.83
2022-12-05T16:18:02.126Z,7.97
2022-12-05T16:20:36.268Z,7.90
2022-12-05T16:23:29.832Z,8.07
2022-12-05T16:26:20.079Z,7.30
2022-12-05T16:29:01.617Z,6.83
2022-12-05T16:31:34.069Z,8.10
2022-12-05T16:34:08.399Z,8.83
2022-12-05T16:36:46.806Z,8.30
2022-12-05T16:39:19.997Z,9.20
2022-12-05T16:41:51.542Z,9.10
2022-12-05T16:44:28.930Z,9.03
2022-12-05T16:47:00.254Z,10.30
2022-12-05T16:49:34.451Z,10.17
2022-12-05T16:52:08.832Z,9.27
2022-12-05T16:54:42.532Z,8.60
2022-12-05T16:57:16.198Z,9.03
2022-12-05T16:59:49.344Z,8.50
2022-12-05T17:02:20.844Z,8.07
2022-12-05T17:04:52.557Z,9.97
2022-12-05T17:07:23.869Z,9.93
2022-12-05T17:09:55.462Z,8.37
2022-12-05T17:12:28.170Z,9.23
2022-12-05T17:14:59.731Z,9.37
2022-12-05T17:17:31.133Z,9.80
2022-12-05T17:20:02.440Z,9.20
2022-12-05T17:22:33.784Z,9.33
2022-12-05T17:25:24.623Z,8.87
2022-12-05T17:27:55.891Z,10.07
2022-12-05T17:30:27.243Z,10.03
2022-12-05T17:32:58.497Z,9.33
2022-12-05T17:35:30.426Z,9.67
2022-12-05T17:38:03.525Z,9.10
2022-12-05T17:40:34.954Z,10.30
2022-12-05T17:43:06.265Z,9.27
2022-12-05T17:45:37.661Z,10.37
2022-12-05T17:48:13.864Z,9.53
2022-12-05T17:50:47.348Z,10.32
2022-12-05T17:53:21.017Z,11.40
2022-12-05T17:55:52.920Z,10.30
2022-12-05T17:58:24.224Z,10.60
2022-12-05T18:00:55.764Z,10.73
2022-12-05T18:03:27.359Z,10.63
2022-12-05T18:05:58.920Z,12.20
2022-12-05T18:08:30.335Z,10.73
2022-12-05T18:11:01.717Z,11.73
2022-12-05T18:13:33.713Z,11.30
2022-12-05T18:16:05.433Z,11.10
2022-12-05T18:18:36.789Z,11.90
2022-12-05T18:21:12.572Z,11.67
2022-12-05T18:23:44.043Z,12.55
2022-12-05T18:26:15.420Z,11.07
2022-12-05T18:28:47.436Z,9.67
2022-12-05T18:31:19.334Z,9.17
2022-12-05T18:33:50.841Z,9.47
2022-12-05T18:36:22.222Z,9.17
2022-12-05T18:38:55.387Z,7.93
2022-12-05T18:41:27.209Z,8.20
2022-12-05T18:43:58.552Z,17.80
2022-12-05T18:46:29.933Z,13.97
2022-12-05T18:49:03.499Z,13.63
2022-12-05T18:51:35.140Z,10.90
2022-12-05T18:54:06.886Z,10.47
2022-12-05T18:56:39.980Z,10.43
2022-12-05T18:59:16.919Z,9.73
2022-12-05T19:01:49.739Z,9.10
2022-12-05T19:04:21.538Z,8.87
2022-12-05T19:06:58.917Z,9.53
2022-12-05T19:09:32.204Z,9.10
2022-12-05T19:12:03.779Z,11.90
2022-12-05T19:14:35.183Z,25.73
2022-12-05T19:17:06.615Z,24.60
2022-12-05T19:19:38.093Z,15.50
2022-12-05T19:22:09.449Z,14.23
2022-12-05T19:24:40.779Z,11.47
2022-12-05T19:27:12.195Z,11.67
2022-12-05T19:29:43.512Z,11.70
2022-12-05T19:32:15.023Z,9.97
2022-12-05T19:34:48.288Z,10.43
2022-12-05T19:37:19.633Z,8.17
2022-12-05T19:39:51.647Z,8.60
2022-12-05T19:42:23.071Z,8.10
2022-12-05T19:44:54.342Z,8.70
2022-12-05T19:47:25.608Z,8.90
2022-12-05T19:49:57.339Z,12.57
2022-12-05T19:52:28.853Z,11.10
2022-12-05T19:55:00.136Z,11.00
2022-12-05T19:57:31.671Z,14.23
2022-12-05T20:00:03.974Z,13.27
2022-12-05T20:02:39.994Z,15.50
2022-12-05T20:05:11.672Z,12.40
2022-12-05T20:07:43.008Z,12.17
2022-12-05T20:10:14.420Z,11.23
2022-12-05T20:12:45.874Z,11.23
2022-12-05T20:15:17.415Z,9.60
2022-12-05T20:17:52.998Z,11.57
2022-12-05T20:20:24.695Z,9.18
2022-12-05T20:22:56.084Z,10.20
2022-12-05T20:25:27.366Z,9.17
2022-12-05T20:27:58.776Z,9.90
2022-12-05T20:30:30.682Z,9.77
2022-12-05T20:33:02.084Z,9.27
2022-12-05T20:35:37.145Z,9.37
2022-12-05T20:38:08.437Z,8.90
2022-12-05T20:40:39.815Z,9.07
2022-12-05T20:43:11.230Z,8.57
2022-12-05T20:45:42.514Z,8.73
2022-12-05T20:48:13.826Z,8.67
2022-12-05T20:50:45.125Z,9.20
2022-12-05T20:53:16.445Z,8.37
2022-12-05T20:55:47.831Z,8.67
2022-12-05T20:58:19.146Z,9.23
2022-12-05T21:00:57.691Z,10.37
2022-12-05T21:03:29.186Z,10.43
2022-12-05T21:06:00.472Z,8.80
2022-12-05T21:08:31.808Z,10.57
2022-12-05T21:11:03.370Z,10.57
2022-12-05T21:13:35.508Z,10.90
2022-12-05T21:16:16.501Z,10.07
2022-12-05T21:18:48.501Z,8.70
2022-12-05T21:21:22.293Z,8.63
2022-12-05T21:23:59.490Z,8.50
2022-12-05T21:26:33.539Z,8.93
2022-12-05T21:29:06.819Z,9.33
2022-12-05T21:31:40.761Z,8.53
2022-12-05T21:34:17.393Z,8.87
2022-12-05T21:36:49.177Z,7.57
2022-12-05T21:39:20.770Z,10.10
2022-12-05T21:41:52.153Z,14.47
2022-12-05T21:44:23.521Z,16.00
2022-12-05T21:46:54.832Z,13.20
2022-12-05T21:49:26.251Z,16.77
2022-12-05T21:51:57.499Z,14.63
2022-12-05T21:54:30.315Z,22.13
2022-12-05T21:57:01.568Z,16.60
2022-12-05T21:59:32.924Z,18.27
2022-12-05T22:02:04.297Z,18.30
2022-12-05T22:04:35.589Z,19.20
2022-12-05T22:07:06.878Z,21.93
2022-12-05T22:09:38.178Z,15.70
2022-12-05T22:12:09.485Z,37.27
2022-12-05T22:14:40.749Z,21.37
2022-12-05T22:17:12.027Z,16.87
2022-12-05T22:19:43.392Z,15.83
2022-12-05T22:22:14.727Z,27.03
2022-12-05T22:24:46.040Z,29.87
2022-12-05T22:27:17.310Z,28.83
2022-12-05T22:29:52.697Z,27.17
2022-12-05T22:32:24.254Z,21.63
2022-12-05T22:34:59.286Z,15.20
2022-12-05T22:37:34.671Z,18.77
2022-12-05T22:40:06.698Z,23.77
2022-12-05T22:42:37.978Z,18.97
2022-12-05T22:45:12.371Z,13.47
2022-12-05T22:47:43.842Z,10.17
2022-12-05T22:50:15.223Z,9.77
2022-12-05T22:52:46.548Z,10.33
2022-12-05T22:55:17.922Z,9.50
2022-12-05T22:57:49.177Z,8.93
2022-12-05T23:00:20.665Z,9.33
2022-12-05T23:02:52.553Z,8.73
2022-12-05T23:05:23.875Z,8.83
2022-12-05T23:07:55.261Z,9.20
2022-12-05T23:10:26.785Z,9.97
2022-12-05T23:12:58.167Z,10.20
2022-12-05T23:15:29.575Z,13.83
2022-12-05T23:18:00.839Z,11.67
2022-12-05T23:20:32.859Z,10.43
2022-12-05T23:23:04.183Z,10.53
2022-12-05T23:25:35.521Z,9.33
2022-12-05T23:28:06.790Z,11.23
2022-12-05T23:30:38.063Z,9.87
2022-12-05T23:33:09.520Z,9.37
2022-12-05T23:35:40.785Z,9.03
2022-12-05T23:38:12.076Z,9.00
2022-12-05T23:40:43.339Z,8.80
2022-12-05T23:43:14.635Z,9.13
2022-12-05T23:45:45.907Z,8.77
2022-12-05T23:48:17.264Z,9.83
2022-12-05T23:51:07.181Z,9.13
2022-12-05T23:53:40.915Z,7.77
2022-12-05T23:56:15.762Z,8.53
2022-12-05T23:58:47.295Z,9.30
